createdAt,value
2017-06-28T00:00:21.692Z,6.30
2017-06-28T00:02:49.211Z,7.30
2017-06-28T00:05:17.463Z,6.77
2017-06-28T00:07:44.974Z,7.00
2017-06-28T00:10:12.459Z,7.00
2017-06-28T00:12:39.979Z,7.30
2017-06-28T00:15:08.056Z,6.83
2017-06-28T00:17:35.559Z,7.00
2017-06-28T00:20:03.052Z,7.00
2017-06-28T00:22:31.336Z,6.20
2017-06-28T00:24:58.835Z,6.47
2017-06-28T00:27:26.386Z,6.23
2017-06-28T00:29:53.876Z,6.90
2017-06-28T00:32:21.356Z,6.70
2017-06-28T00:34:48.861Z,7.10
2017-06-28T00:37:16.348Z,8.33
2017-06-28T00:39:43.865Z,7.57
2017-06-28T00:42:11.363Z,6.60
2017-06-28T00:44:38.864Z,6.03
2017-06-28T00:47:06.355Z,7.03
2017-06-28T00:49:33.865Z,7.13
2017-06-28T00:52:02.140Z,6.60
2017-06-28T00:54:29.651Z,6.83
2017-06-28T00:56:57.152Z,6.90
2017-06-28T00:59:24.679Z,7.50
2017-06-28T01:01:52.171Z,6.90
2017-06-28T01:04:19.682Z,7.43
2017-06-28T01:06:47.180Z,6.40
2017-06-28T01:09:14.685Z,7.33
2017-06-28T01:11:42.173Z,6.27
2017-06-28T01:14:09.692Z,7.53
2017-06-28T01:16:37.950Z,7.00
2017-06-28T01:19:05.451Z,6.90
2017-06-28T01:21:32.935Z,7.07
2017-06-28T01:24:00.451Z,6.70
2017-06-28T01:26:28.704Z,7.30
2017-06-28T01:28:56.208Z,5.73
2017-06-28T01:31:23.696Z,7.20
2017-06-28T01:33:51.424Z,7.30
2017-06-28T01:36:18.917Z,7.27
2017-06-28T01:38:46.422Z,6.93
2017-06-28T01:41:14.685Z,6.20
2017-06-28T01:43:42.196Z,7.10
2017-06-28T01:46:09.687Z,7.53
2017-06-28T01:48:37.191Z,7.80
2017-06-28T01:51:04.680Z,6.67
2017-06-28T01:53:32.187Z,7.00
2017-06-28T01:55:59.676Z,6.40
2017-06-28T01:58:27.180Z,7.30
2017-06-28T02:00:54.672Z,6.43
2017-06-28T02:03:22.958Z,7.60
2017-06-28T02:05:51.208Z,6.57
2017-06-28T02:08:18.713Z,6.50
2017-06-28T02:10:46.205Z,6.90
2017-06-28T02:13:14.147Z,8.90
2017-06-28T02:15:41.648Z,8.83
2017-06-28T02:18:09.163Z,9.77
2017-06-28T02:20:36.659Z,8.43
2017-06-28T02:23:04.174Z,9.30
2017-06-28T02:25:31.668Z,8.10
2017-06-28T02:27:59.179Z,7.90
2017-06-28T02:30:26.676Z,9.80
2017-06-28T02:32:54.188Z,7.70
2017-06-28T02:35:22.446Z,6.07
2017-06-28T02:37:49.955Z,6.47
2017-06-28T02:40:17.443Z,7.07
2017-06-28T02:42:44.947Z,6.57
2017-06-28T02:45:13.198Z,7.40
2017-06-28T02:47:40.711Z,8.37
2017-06-28T02:50:08.209Z,7.57
2017-06-28T02:52:35.710Z,8.03
2017-06-28T02:55:03.202Z,7.63
2017-06-28T02:57:30.712Z,8.43
2017-06-28T02:59:58.968Z,8.10
2017-06-28T03:02:26.481Z,9.73
2017-06-28T03:04:53.974Z,8.23
2017-06-28T03:07:25.367Z,8.60
2017-06-28T03:09:53.619Z,8.47
2017-06-28T03:12:21.129Z,8.67
2017-06-28T03:14:49.440Z,10.23
2017-06-28T03:17:16.941Z,9.20
2017-06-28T03:19:44.431Z,8.87
2017-06-28T03:22:11.944Z,8.80
2017-06-28T03:24:40.199Z,7.67
2017-06-28T03:27:07.703Z,7.70
2017-06-28T03:29:35.407Z,7.27
2017-06-28T03:32:02.923Z,7.10
2017-06-28T03:34:30.416Z,7.13
2017-06-28T03:36:57.923Z,7.30
2017-06-28T03:39:26.172Z,6.90
2017-06-28T03:41:53.681Z,6.60
2017-06-28T03:44:21.166Z,6.93
2017-06-28T03:46:48.668Z,6.10
2017-06-28T03:49:16.157Z,7.43
2017-06-28T03:51:43.667Z,7.07
2017-06-28T03:54:11.156Z,7.50
2017-06-28T03:56:39.435Z,6.80
2017-06-28T03:59:06.924Z,7.37
2017-06-28T04:01:34.426Z,6.60
2017-06-28T04:04:01.923Z,7.10
2017-06-28T04:06:29.427Z,6.30
2017-06-28T04:08:56.917Z,5.97
2017-06-28T04:11:24.415Z,6.10
2017-06-28T04:13:52.113Z,6.00
2017-06-28T04:16:19.619Z,5.90
2017-06-28T04:18:47.864Z,6.43
2017-06-28T04:21:15.371Z,6.27
2017-06-28T04:23:42.860Z,6.60
2017-06-28T04:26:10.367Z,7.37
2017-06-28T04:28:38.626Z,6.97
2017-06-28T04:31:06.128Z,7.33
2017-06-28T04:33:33.619Z,8.53
2017-06-28T04:36:01.127Z,6.93
2017-06-28T04:38:28.619Z,6.70
2017-06-28T04:40:56.147Z,7.40
2017-06-28T04:43:23.641Z,6.60
2017-06-28T04:45:51.155Z,7.03
2017-06-28T04:48:18.643Z,6.93
2017-06-28T04:50:46.134Z,6.87
2017-06-28T04:53:13.859Z,7.93
2017-06-28T04:55:41.343Z,7.87
2017-06-28T04:58:08.848Z,7.30
2017-06-28T05:00:36.343Z,7.30
2017-06-28T05:03:03.843Z,7.40
2017-06-28T05:05:31.323Z,7.20
2017-06-28T05:07:58.831Z,6.50
2017-06-28T05:10:26.324Z,6.80
2017-06-28T05:12:53.835Z,7.00
2017-06-28T05:15:21.316Z,6.30
2017-06-28T05:17:48.822Z,6.50
2017-06-28T05:20:16.298Z,5.73
2017-06-28T05:22:44.567Z,6.83
2017-06-28T05:25:12.819Z,6.17
2017-06-28T05:27:40.324Z,5.60
2017-06-28T05:30:07.810Z,6.27
2017-06-28T05:32:35.348Z,5.00
2017-06-28T05:35:02.834Z,6.97
2017-06-28T05:37:30.335Z,5.50
2017-06-28T05:39:58.587Z,5.23
2017-06-28T05:42:26.086Z,6.37
2017-06-28T05:44:53.570Z,5.60
2017-06-28T05:47:21.090Z,5.50
2017-06-28T05:49:49.358Z,5.77
2017-06-28T05:52:16.868Z,5.77
2017-06-28T05:54:44.347Z,5.77
2017-06-28T05:57:11.857Z,6.07
2017-06-28T05:59:39.340Z,5.47
2017-06-28T06:02:06.851Z,5.83
2017-06-28T06:04:34.335Z,5.43
2017-06-28T06:07:02.607Z,5.03
2017-06-28T06:09:30.851Z,5.40
2017-06-28T06:11:58.355Z,5.37
2017-06-28T06:14:25.855Z,4.90
2017-06-28T06:16:53.360Z,4.73
2017-06-28T06:19:21.611Z,4.63
2017-06-28T06:21:49.111Z,4.40
2017-06-28T06:24:16.612Z,4.50
2017-06-28T06:26:44.132Z,4.73
2017-06-28T06:29:11.611Z,4.57
2017-06-28T06:31:39.730Z,3.67
2017-06-28T06:34:07.996Z,3.33
2017-06-28T06:36:35.897Z,4.30
2017-06-28T06:39:03.775Z,3.77
2017-06-28T06:41:31.291Z,3.70
2017-06-28T06:43:58.984Z,3.30
2017-06-28T06:46:26.953Z,3.23
2017-06-28T06:48:54.491Z,3.27
2017-06-28T06:51:21.988Z,3.53
2017-06-28T06:53:49.463Z,3.50
2017-06-28T06:56:16.967Z,3.40
2017-06-28T06:58:44.456Z,3.37
2017-06-28T07:01:12.719Z,3.00
2017-06-28T07:03:40.973Z,3.43
2017-06-28T07:06:08.467Z,3.80
2017-06-28T07:08:36.724Z,3.70
2017-06-28T07:11:04.231Z,3.47
2017-06-28T07:13:31.719Z,3.90
2017-06-28T07:15:59.223Z,3.90
2017-06-28T07:18:27.472Z,4.07
2017-06-28T07:20:54.982Z,3.60
2017-06-28T07:23:22.467Z,3.47
2017-06-28T07:25:49.972Z,3.60
2017-06-28T07:28:18.224Z,3.13
2017-06-28T07:30:45.736Z,3.97
2017-06-28T07:33:13.228Z,3.70
2017-06-28T07:35:40.736Z,4.27
2017-06-28T07:38:08.214Z,4.00
2017-06-28T07:40:35.721Z,3.50
2017-06-28T07:43:03.194Z,3.40
2017-06-28T07:45:31.463Z,3.70
2017-06-28T07:47:58.946Z,3.90
2017-06-28T07:50:26.460Z,3.50
2017-06-28T07:52:53.942Z,3.70
2017-06-28T07:55:21.458Z,3.03
2017-06-28T07:57:48.940Z,3.57
2017-06-28T08:00:16.442Z,3.70
2017-06-28T08:02:44.713Z,3.80
2017-06-28T08:05:12.239Z,2.90
2017-06-28T08:07:39.727Z,2.97
2017-06-28T08:10:07.988Z,3.50
2017-06-28T08:12:35.476Z,3.70
2017-06-28T08:15:02.986Z,3.47
2017-06-28T08:17:30.468Z,4.33
2017-06-28T08:19:57.970Z,3.63
2017-06-28T08:22:25.456Z,3.27
2017-06-28T08:24:52.951Z,2.80
2017-06-28T08:27:21.199Z,2.60
2017-06-28T08:29:48.711Z,2.83
2017-06-28T08:32:16.196Z,3.13
2017-06-28T08:34:43.691Z,2.73
2017-06-28T08:37:11.172Z,2.73
2017-06-28T08:39:39.438Z,2.50
2017-06-28T08:42:06.928Z,3.10
2017-06-28T08:44:34.431Z,2.50
2017-06-28T08:47:01.917Z,3.30
2017-06-28T08:49:30.191Z,2.53
2017-06-28T08:51:58.455Z,2.77
2017-06-28T08:54:25.969Z,2.67
2017-06-28T08:56:53.450Z,2.70
2017-06-28T08:59:20.955Z,2.60
2017-06-28T09:01:48.845Z,2.50
2017-06-28T09:04:16.359Z,2.70
2017-06-28T09:06:43.852Z,2.47
2017-06-28T09:09:11.372Z,2.50
2017-06-28T09:11:38.863Z,2.50
2017-06-28T09:14:06.371Z,2.37
2017-06-28T09:16:33.900Z,2.40
2017-06-28T09:19:01.407Z,2.10
2017-06-28T09:21:28.887Z,2.23
2017-06-28T09:23:56.406Z,2.30
2017-06-28T09:26:23.892Z,2.60
2017-06-28T09:28:51.407Z,2.33
2017-06-28T09:31:18.887Z,2.20
2017-06-28T09:33:46.367Z,2.27
2017-06-28T09:36:13.867Z,2.00
2017-06-28T09:38:41.353Z,2.20
2017-06-28T09:41:08.864Z,1.80
2017-06-28T09:43:37.131Z,1.73
2017-06-28T09:46:04.639Z,1.80
2017-06-28T09:48:32.124Z,1.57
2017-06-28T09:50:59.641Z,1.73
2017-06-28T09:53:27.883Z,1.90
2017-06-28T09:55:55.398Z,2.03
2017-06-28T09:58:22.885Z,1.90
2017-06-28T10:00:50.398Z,1.60
2017-06-28T10:03:17.884Z,1.80
2017-06-28T10:05:45.399Z,1.80
2017-06-28T10:08:13.657Z,1.70
2017-06-28T10:10:41.162Z,1.53
2017-06-28T10:13:08.644Z,1.53
2017-06-28T10:15:36.159Z,2.00
2017-06-28T10:18:04.414Z,1.60
2017-06-28T10:20:32.704Z,1.40
2017-06-28T10:23:00.965Z,2.20
2017-06-28T10:25:28.469Z,2.00
2017-06-28T10:27:55.961Z,2.30
2017-06-28T10:30:23.462Z,1.60
2017-06-28T10:32:50.948Z,1.70
2017-06-28T10:35:18.459Z,1.70
2017-06-28T10:37:45.939Z,1.60
2017-06-28T10:40:14.212Z,2.27
2017-06-28T10:42:42.487Z,1.83
2017-06-28T10:45:10.788Z,1.83
2017-06-28T10:47:38.275Z,2.07
2017-06-28T10:50:05.775Z,1.90
2017-06-28T10:52:33.259Z,1.70
2017-06-28T10:55:01.527Z,2.00
2017-06-28T10:57:29.780Z,2.30
2017-06-28T10:59:57.290Z,2.73
2017-06-28T11:02:24.784Z,1.90
2017-06-28T11:04:52.301Z,1.70
2017-06-28T11:07:20.024Z,1.90
2017-06-28T11:09:47.534Z,2.30
2017-06-28T11:12:15.010Z,2.20
2017-06-28T11:14:42.515Z,2.10
2017-06-28T11:17:10.076Z,1.90
2017-06-28T11:19:37.607Z,2.00
2017-06-28T11:22:05.091Z,2.37
2017-06-28T11:24:33.364Z,1.73
2017-06-28T11:27:01.622Z,2.00
2017-06-28T11:29:29.124Z,1.80
2017-06-28T11:31:56.612Z,2.20
2017-06-28T11:34:24.121Z,2.20
2017-06-28T11:36:52.595Z,2.10
2017-06-28T11:39:20.099Z,1.97
2017-06-28T11:41:47.588Z,2.20
2017-06-28T11:44:15.091Z,2.00
2017-06-28T11:46:43.346Z,2.03
2017-06-28T11:49:10.851Z,2.40
2017-06-28T11:51:38.340Z,2.50
2017-06-28T11:54:05.848Z,2.00
2017-06-28T11:56:33.342Z,2.00
2017-06-28T11:59:00.859Z,2.40
2017-06-28T12:01:28.340Z,2.30
2017-06-28T12:03:55.836Z,2.00
2017-06-28T12:06:23.316Z,2.30
2017-06-28T12:08:51.808Z,1.70
2017-06-28T12:11:19.295Z,2.03
2017-06-28T12:13:46.804Z,1.73
2017-06-28T12:16:14.303Z,1.80
2017-06-28T12:18:41.966Z,2.37
2017-06-28T12:21:09.459Z,2.10
2017-06-28T12:23:36.968Z,2.00
2017-06-28T12:26:05.216Z,2.47
2017-06-28T12:28:32.729Z,1.90
2017-06-28T12:31:00.225Z,2.00
2017-06-28T12:33:27.767Z,2.70
2017-06-28T12:35:55.236Z,2.20
2017-06-28T12:38:22.745Z,2.40
2017-06-28T12:40:51.013Z,2.40
2017-06-28T12:43:18.511Z,2.27
2017-06-28T12:45:45.991Z,2.37
2017-06-28T12:48:13.496Z,2.40
2017-06-28T12:50:41.769Z,2.13
2017-06-28T12:53:09.285Z,1.90
2017-06-28T12:55:36.765Z,2.10
2017-06-28T12:58:04.272Z,2.30
2017-06-28T13:00:31.763Z,2.73
2017-06-28T13:03:00.481Z,1.90
2017-06-28T13:05:27.967Z,2.50
2017-06-28T13:07:56.246Z,1.77
2017-06-28T13:10:24.508Z,1.87
2017-06-28T13:12:52.021Z,2.00
2017-06-28T13:15:19.513Z,1.83
2017-06-28T13:17:47.010Z,2.10
2017-06-28T13:20:14.511Z,2.27
2017-06-28T13:22:42.020Z,1.93
2017-06-28T13:25:09.524Z,2.50
2017-06-28T13:27:37.032Z,2.00
2017-06-28T13:30:05.285Z,2.07
2017-06-28T13:32:32.789Z,1.70
2017-06-28T13:35:00.295Z,2.10
2017-06-28T13:37:27.808Z,2.10
2017-06-28T13:39:55.295Z,3.30
2017-06-28T13:42:22.799Z,2.40
2017-06-28T13:44:51.051Z,1.87
2017-06-28T13:47:18.566Z,2.10
2017-06-28T13:49:46.047Z,2.47
2017-06-28T13:52:13.543Z,2.20
2017-06-28T13:54:41.027Z,2.27
2017-06-28T13:57:09.296Z,1.60
2017-06-28T13:59:37.555Z,1.90
2017-06-28T14:02:05.060Z,2.10
2017-06-28T14:04:32.543Z,1.93
2017-06-28T14:07:00.053Z,1.97
2017-06-28T14:09:28.295Z,2.03
2017-06-28T14:11:55.802Z,2.10
2017-06-28T14:14:23.283Z,1.90
2017-06-28T14:16:50.792Z,2.40
2017-06-28T14:19:18.273Z,2.07
2017-06-28T14:21:45.775Z,2.10
2017-06-28T14:24:13.255Z,1.60
2017-06-28T14:26:40.760Z,1.93
2017-06-28T14:29:08.249Z,2.10
2017-06-28T14:31:35.761Z,1.50
2017-06-28T14:34:03.252Z,2.13
2017-06-28T14:36:30.760Z,1.80
2017-06-28T14:38:58.258Z,2.20
2017-06-28T14:41:25.759Z,1.70
2017-06-28T14:43:53.247Z,1.83
2017-06-28T14:46:21.515Z,1.90
2017-06-28T14:48:49.001Z,1.63
2017-06-28T14:51:16.514Z,1.80
2017-06-28T14:53:44.381Z,1.77
2017-06-28T14:56:11.886Z,1.90
2017-06-28T14:58:39.367Z,2.00
2017-06-28T15:01:06.872Z,2.10
2017-06-28T15:03:34.364Z,1.80
2017-06-28T15:06:01.851Z,1.80
2017-06-28T15:08:29.363Z,1.60
2017-06-28T15:10:57.619Z,2.10
2017-06-28T15:13:25.131Z,1.90
2017-06-28T15:15:52.619Z,1.80
2017-06-28T15:18:20.131Z,1.57
2017-06-28T15:20:47.619Z,1.97
2017-06-28T15:23:15.131Z,1.90
2017-06-28T15:25:42.612Z,1.90
2017-06-28T15:28:10.881Z,1.60
2017-06-28T15:30:39.127Z,1.70
2017-06-28T15:33:06.640Z,2.20
2017-06-28T15:35:34.725Z,1.77
2017-06-28T15:38:02.228Z,1.70
2017-06-28T15:40:30.487Z,1.63
2017-06-28T15:42:57.991Z,2.00
2017-06-28T15:45:25.479Z,1.67
2017-06-28T15:47:52.985Z,1.70
2017-06-28T15:50:20.484Z,1.80
2017-06-28T15:52:47.992Z,1.73
2017-06-28T15:55:15.481Z,1.80
2017-06-28T15:57:43.768Z,1.83
2017-06-28T16:00:11.252Z,2.23
2017-06-28T16:02:38.772Z,1.80
2017-06-28T16:05:07.032Z,1.90
2017-06-28T16:07:34.531Z,1.90
2017-06-28T16:10:02.022Z,1.90
2017-06-28T16:12:29.523Z,1.50
2017-06-28T16:14:57.787Z,1.50
2017-06-28T16:17:25.295Z,1.83
2017-06-28T16:19:52.783Z,1.63
2017-06-28T16:22:20.290Z,1.97
2017-06-28T16:24:48.555Z,1.60
2017-06-28T16:27:16.827Z,1.90
2017-06-28T16:29:45.079Z,1.67
2017-06-28T16:32:12.581Z,1.60
2017-06-28T16:34:40.843Z,1.57
2017-06-28T16:37:08.347Z,1.70
2017-06-28T16:39:35.839Z,1.80
2017-06-28T16:42:03.356Z,1.87
2017-06-28T16:44:30.848Z,1.67
2017-06-28T16:46:58.348Z,1.60
2017-06-28T16:49:26.599Z,1.70
2017-06-28T16:51:54.102Z,1.80
2017-06-28T16:54:21.599Z,1.73
2017-06-28T16:56:49.688Z,1.60
2017-06-28T16:59:17.186Z,1.60
2017-06-28T17:01:44.687Z,2.13
2017-06-28T17:04:12.168Z,2.00
2017-06-28T17:06:39.691Z,1.87
2017-06-28T17:09:07.192Z,2.13
2017-06-28T17:11:34.723Z,2.00
2017-06-28T17:14:02.215Z,1.80
2017-06-28T17:16:30.491Z,1.90
2017-06-28T17:18:57.975Z,1.90
2017-06-28T17:21:25.484Z,1.70
2017-06-28T17:23:52.979Z,1.83
2017-06-28T17:26:21.251Z,1.93
2017-06-28T17:28:49.695Z,2.07
2017-06-28T17:31:17.204Z,1.67
2017-06-28T17:33:44.699Z,1.87
2017-06-28T17:36:12.204Z,2.00
2017-06-28T17:38:39.695Z,1.80
2017-06-28T17:41:07.210Z,2.10
2017-06-28T17:43:34.700Z,1.90
2017-06-28T17:46:02.213Z,1.90
2017-06-28T17:48:29.696Z,1.60
2017-06-28T17:50:57.212Z,1.83
2017-06-28T17:53:24.697Z,2.03
2017-06-28T17:55:52.203Z,1.73
2017-06-28T17:58:19.700Z,1.80
2017-06-28T18:00:47.211Z,1.70
2017-06-28T18:03:15.462Z,1.57
2017-06-28T18:05:42.967Z,1.80
2017-06-28T18:08:10.456Z,1.97
2017-06-28T18:10:37.985Z,1.90
2017-06-28T18:13:05.471Z,1.80
2017-06-28T18:15:32.984Z,1.60
2017-06-28T18:18:01.239Z,1.50
2017-06-28T18:20:28.748Z,1.60
2017-06-28T18:22:56.246Z,1.93
2017-06-28T18:25:23.747Z,1.93
2017-06-28T18:27:51.326Z,1.60
2017-06-28T18:30:18.837Z,1.73
2017-06-28T18:32:46.329Z,1.93
2017-06-28T18:35:13.834Z,2.53
2017-06-28T18:37:41.909Z,1.80
2017-06-28T18:40:09.414Z,1.90
2017-06-28T18:42:36.900Z,1.60
2017-06-28T18:45:04.407Z,1.60
2017-06-28T18:47:32.451Z,2.27
2017-06-28T18:49:59.977Z,2.10
2017-06-28T18:52:27.886Z,1.97
2017-06-28T18:54:55.400Z,1.80
2017-06-28T18:57:22.927Z,2.43
2017-06-28T18:59:50.453Z,17.87
2017-06-28T19:02:17.930Z,2.40
2017-06-28T19:04:45.442Z,1.70
2017-06-28T19:07:12.928Z,2.27
2017-06-28T19:09:40.427Z,2.30
2017-06-28T19:12:08.688Z,2.50
2017-06-28T19:14:36.204Z,1.97
2017-06-28T19:17:03.697Z,2.43
2017-06-28T19:19:31.206Z,3.40
2017-06-28T19:21:58.691Z,2.10
2017-06-28T19:24:26.179Z,2.50
2017-06-28T19:26:53.683Z,4.30
2017-06-28T19:29:21.168Z,3.20
2017-06-28T19:31:48.679Z,2.60
2017-06-28T19:34:16.939Z,1.97
2017-06-28T19:36:44.456Z,2.33
2017-06-28T19:39:11.940Z,2.23
2017-06-28T19:41:39.447Z,2.70
2017-06-28T19:44:07.812Z,2.07
2017-06-28T19:46:36.087Z,2.37
2017-06-28T19:49:04.364Z,2.53
2017-06-28T19:51:32.645Z,2.33
2017-06-28T19:54:00.926Z,2.73
2017-06-28T19:56:29.187Z,2.93
2017-06-28T19:58:56.692Z,2.80
2017-06-28T20:01:24.200Z,2.90
2017-06-28T20:03:51.707Z,2.57
2017-06-28T20:06:19.333Z,2.47
2017-06-28T20:08:46.821Z,2.40
2017-06-28T20:11:14.325Z,2.60
2017-06-28T20:13:41.816Z,3.23
2017-06-28T20:16:09.351Z,3.30
2017-06-28T20:18:36.855Z,3.33
2017-06-28T20:21:04.367Z,3.70
2017-06-28T20:23:31.873Z,3.63
2017-06-28T20:25:59.387Z,4.23
2017-06-28T20:28:26.877Z,3.20
2017-06-28T20:30:55.163Z,4.27
2017-06-28T20:33:22.655Z,4.43
2017-06-28T20:35:50.184Z,3.50
2017-06-28T20:38:17.671Z,3.53
2017-06-28T20:40:45.190Z,3.80
2017-06-28T20:43:13.440Z,4.20
2017-06-28T20:45:40.956Z,3.97
2017-06-28T20:48:08.443Z,6.90
2017-06-28T20:50:35.956Z,3.13
2017-06-28T20:53:04.212Z,5.77
2017-06-28T20:55:31.725Z,3.47
2017-06-28T20:57:59.232Z,4.13
2017-06-28T21:00:26.743Z,4.60
2017-06-28T21:02:54.286Z,4.03
2017-06-28T21:05:21.799Z,4.20
2017-06-28T21:07:49.299Z,4.80
2017-06-28T21:10:16.803Z,4.87
2017-06-28T21:12:44.323Z,6.00
2017-06-28T21:15:11.829Z,6.30
2017-06-28T21:17:39.323Z,4.83
2017-06-28T21:20:07.593Z,5.10
2017-06-28T21:22:35.849Z,4.43
2017-06-28T21:25:03.351Z,4.37
2017-06-28T21:27:30.846Z,4.60
2017-06-28T21:29:58.355Z,5.00
2017-06-28T21:32:26.602Z,3.93
2017-06-28T21:34:54.099Z,3.83
2017-06-28T21:37:21.579Z,3.33
2017-06-28T21:39:49.118Z,4.00
2017-06-28T21:42:16.605Z,5.40
2017-06-28T22:01:51.174Z,4.93
2017-06-28T22:04:18.713Z,4.90
2017-06-28T22:06:46.294Z,4.07
2017-06-28T22:09:15.033Z,3.30
2017-06-28T22:11:42.559Z,3.37
2017-06-28T22:14:14.368Z,3.80
2017-06-28T22:16:42.022Z,5.33
2017-06-28T22:19:21.510Z,2.90
2017-06-28T22:21:50.268Z,2.47
2017-06-28T22:24:17.805Z,4.13
2017-06-28T22:26:46.574Z,3.03
2017-06-28T22:29:26.355Z,2.37
2017-06-28T22:31:53.876Z,2.70
2017-06-28T22:34:21.680Z,2.33
2017-06-28T22:36:49.186Z,3.10
2017-06-28T22:39:16.692Z,2.60
2017-06-28T22:41:44.204Z,2.50
2017-06-28T22:44:11.700Z,2.80
2017-06-28T22:46:39.568Z,2.50
2017-06-28T22:49:07.072Z,2.30
2017-06-28T22:51:34.581Z,1.70
2017-06-28T22:54:02.101Z,2.33
2017-06-28T22:56:29.609Z,2.47
2017-06-28T22:58:57.135Z,2.00
2017-06-28T23:01:24.627Z,2.53
2017-06-28T23:03:52.140Z,2.33
2017-06-28T23:06:19.653Z,2.27
2017-06-28T23:08:47.166Z,2.03
2017-06-28T23:11:15.449Z,2.10
2017-06-28T23:13:43.736Z,2.17
2017-06-28T23:16:11.242Z,1.77
2017-06-28T23:18:38.751Z,1.53
2017-06-28T23:21:06.244Z,1.83
2017-06-28T23:23:33.752Z,1.70
2017-06-28T23:26:02.016Z,1.83
2017-06-28T23:28:29.543Z,1.60
2017-06-28T23:30:57.036Z,1.70
2017-06-28T23:33:24.552Z,1.40
2017-06-28T23:35:52.054Z,2.10
2017-06-28T23:38:20.363Z,2.10
2017-06-28T23:40:47.852Z,2.10
2017-06-28T23:43:15.370Z,1.83
2017-06-28T23:45:42.869Z,1.60
2017-06-28T23:48:10.362Z,1.57
2017-06-28T23:50:38.652Z,1.60
2017-06-28T23:53:06.924Z,1.60
2017-06-28T23:55:34.444Z,1.63
2017-06-28T23:58:01.936Z,1.63
